This is the latest recevied weather packets stored in our database for station/object KD7JB. If no packets are shown the sender has not sent any weather packets the latest 10 day(s).
| Time | Temp. | Humidity | Pressure | Rain* | Wind** | Luminosity | Snow |
|---|---|---|---|---|---|---|---|
| 1777870525 | 17.22° C | 45% | 1173.6 hPa | 0 mm | - | 0 W/m² | - |
| 1777870220 | 17.22° C | 45% | 1173.6 hPa | 0 mm | - | 0 W/m² | - |
| 1777869918 | 17.78° C | 45% | 1173.6 hPa | 0 mm | - | 0 W/m² | - |
| 1777869615 | 17.78° C | 45% | 1173.5 hPa | 0 mm | - | 0 W/m² | - |
| 1777869312 | 17.22° C | 45% | 1173.5 hPa | 0 mm | - | 0 W/m² | - |
| 1777869009 | 17.22° C | 44% | 1173.6 hPa | 0 mm | - | 0 W/m² | - |
| 1777868706 | 17.22° C | 45% | 1173.5 hPa | 0 mm | - | 0 W/m² | - |
| 1777868403 | 17.22° C | 44% | 1173.5 hPa | 0 mm | - | 0 W/m² | - |
| 1777868099 | 17.22° C | 44% | 1173.5 hPa | 0 mm | - | 0 W/m² | - |
| 1777867794 | 17.22° C | 44% | 1173.6 hPa | 0 mm | - | 0 W/m² | - |
| 1777867493 | 17.22° C | 44% | 1173.5 hPa | 0 mm | - | 0 W/m² | - |
| 1777867188 | 17.78° C | 43% | 1173.6 hPa | 0 mm | - | 0 W/m² | - |
| 1777865372 | 17.22° C | 44% | 1173.3 hPa | 0 mm | - | 1 W/m² | - |
| 1777865069 | 16.67° C | 46% | 1173.4 hPa | 0 mm | - | 1 W/m² | - |
| 1777863552 | 18.33° C | 43% | 1173.3 hPa | 0 mm | - | 11 W/m² | - |
| 1777847189 | 22.22° C | 33% | 1175.5 hPa | 0 mm | - | 583 W/m² | - |
| 1777846585 | 21.67° C | 32% | 1175.5 hPa | 0 mm | - | 607 W/m² | - |
| 1777846282 | 21.67° C | 33% | 1175.6 hPa | 0 mm | - | 621 W/m² | - |
| 1777845978 | 21.67° C | 34% | 1175.6 hPa | 0 mm | - | 631 W/m² | - |
| 1777845675 | 21.11° C | 33% | 1175.8 hPa | 0 mm | - | 642 W/m² | - |
| 1777845372 | 21.11° C | 35% | 1175.7 hPa | 0 mm | - | 655 W/m² | - |
| 1777844767 | 21.11° C | 33% | 1175.7 hPa | 0 mm | - | 666 W/m² | - |
| 1777844463 | 21.11° C | 33% | 1176 hPa | 0 mm | - | 673 W/m² | - |
| 1777844162 | 21.67° C | 35% | 1176 hPa | 0 mm | - | 690 W/m² | - |
| 1777843858 | 22.22° C | 35% | 1175.8 hPa | 0 mm | - | 704 W/m² | - |
* Rain latest hour (hover to see other rain measurements)
** Current wind speed in m/s (hover to see current wind gust speed)